createdAt,value
2019-03-04T00:01:54.582Z,8.27
2019-03-04T00:04:28.452Z,8.43
2019-03-04T00:07:02.289Z,7.50
2019-03-04T00:09:36.957Z,9.20
2019-03-04T00:12:10.902Z,9.60
2019-03-04T00:14:44.600Z,10.17
2019-03-04T00:17:18.496Z,9.23
2019-03-04T00:19:52.061Z,9.90
2019-03-04T00:22:25.841Z,9.97
2019-03-04T00:24:59.929Z,8.80
2019-03-04T00:27:33.888Z,8.30
2019-03-04T00:30:07.986Z,8.23
2019-03-04T00:32:41.971Z,7.10
2019-03-04T00:35:15.452Z,7.77
2019-03-04T00:37:49.929Z,6.23
2019-03-04T00:40:23.851Z,5.97
2019-03-04T00:42:57.695Z,5.40
2019-03-04T00:45:32.075Z,4.47
2019-03-04T00:48:05.922Z,5.03
2019-03-04T00:50:39.500Z,6.33
2019-03-04T00:53:13.418Z,6.33
2019-03-04T00:55:47.291Z,6.43
2019-03-04T00:58:21.052Z,6.23
2019-03-04T01:00:54.578Z,6.53
2019-03-04T01:03:28.257Z,8.33
2019-03-04T01:06:03.397Z,7.70
2019-03-04T01:08:40.250Z,7.10
2019-03-04T01:11:15.085Z,7.77
2019-03-04T01:13:48.916Z,7.33
2019-03-04T01:16:22.609Z,7.20
2019-03-04T01:18:56.465Z,6.90
2019-03-04T01:21:29.994Z,6.83
2019-03-04T01:24:03.920Z,6.20
2019-03-04T01:26:37.448Z,6.17
2019-03-04T01:29:11.300Z,6.10
2019-03-04T01:31:44.907Z,6.00
2019-03-04T01:34:18.386Z,5.67
2019-03-04T01:36:52.368Z,5.93
2019-03-04T01:39:26.267Z,5.80
2019-03-04T01:42:00.078Z,5.83
2019-03-04T01:44:33.782Z,5.60
2019-03-04T01:47:07.409Z,5.63
2019-03-04T01:49:41.751Z,6.23
2019-03-04T01:52:15.247Z,6.17
2019-03-04T01:54:49.048Z,7.13
2019-03-04T01:57:22.689Z,7.97
2019-03-04T01:59:56.598Z,6.83
2019-03-04T02:02:29.819Z,6.07
2019-03-04T02:05:03.832Z,6.43
2019-03-04T02:07:37.360Z,8.30
2019-03-04T02:10:13.301Z,7.60
2019-03-04T02:12:50.424Z,5.70
2019-03-04T02:15:24.341Z,5.43
2019-03-04T02:17:58.088Z,5.53
2019-03-04T02:20:31.907Z,5.10
2019-03-04T02:23:05.353Z,5.20
2019-03-04T02:26:21.240Z,5.10
2019-03-04T02:28:54.807Z,4.83
2019-03-04T02:31:28.760Z,4.57
2019-03-04T02:34:02.292Z,5.27
2019-03-04T02:36:36.130Z,5.07
2019-03-04T02:39:09.918Z,5.17
2019-03-04T02:41:44.237Z,5.30
2019-03-04T02:44:18.007Z,4.47
2019-03-04T02:46:51.964Z,4.47
2019-03-04T02:49:25.521Z,4.57
2019-03-04T02:51:59.450Z,4.33
2019-03-04T02:54:32.932Z,5.10
2019-03-04T02:57:07.440Z,4.73
2019-03-04T02:59:41.600Z,6.00
2019-03-04T03:02:15.465Z,5.67
2019-03-04T03:04:48.933Z,5.53
2019-03-04T03:07:22.974Z,4.90
2019-03-04T03:09:56.485Z,4.53
2019-03-04T03:12:30.327Z,5.97
2019-03-04T03:15:05.561Z,6.23
2019-03-04T03:17:39.537Z,6.63
2019-03-04T03:20:13.451Z,5.37
2019-03-04T03:22:47.593Z,5.23
2019-03-04T03:25:21.268Z,4.73
2019-03-04T03:27:55.091Z,4.20
2019-03-04T03:30:28.685Z,4.30
2019-03-04T03:33:02.660Z,4.33
2019-03-04T03:35:36.836Z,4.00
2019-03-04T03:38:10.688Z,4.00
2019-03-04T03:40:44.208Z,4.50
2019-03-04T03:43:18.085Z,3.83
2019-03-04T03:45:51.851Z,4.57
2019-03-04T03:48:25.802Z,3.70
2019-03-04T03:50:59.388Z,3.73
2019-03-04T03:53:33.319Z,3.73
2019-03-04T03:56:06.992Z,3.47
2019-03-04T03:58:40.982Z,3.90
2019-03-04T04:01:14.643Z,4.90
2019-03-04T04:03:48.747Z,4.33
2019-03-04T04:06:21.790Z,4.60
2019-03-04T04:08:56.153Z,8.30
2019-03-04T04:11:29.720Z,7.67
2019-03-04T04:14:03.619Z,7.77
2019-03-04T04:16:42.797Z,6.33
2019-03-04T04:19:16.730Z,5.47
2019-03-04T04:21:50.737Z,6.63
2019-03-04T04:24:24.687Z,6.17
2019-03-04T04:26:58.491Z,5.73
2019-03-04T04:29:32.462Z,4.93
2019-03-04T04:32:05.939Z,6.43
2019-03-04T04:34:39.715Z,5.77
2019-03-04T04:37:13.211Z,6.77
2019-03-04T04:39:47.149Z,7.60
2019-03-04T04:42:20.808Z,9.03
2019-03-04T04:44:55.653Z,6.67
2019-03-04T04:47:29.404Z,7.47
2019-03-04T04:50:03.333Z,7.30
2019-03-04T04:52:36.744Z,6.33
2019-03-04T04:55:10.646Z,6.03
2019-03-04T04:57:44.476Z,7.00
2019-03-04T05:00:18.688Z,6.03
2019-03-04T05:02:52.518Z,7.13
2019-03-04T05:05:26.408Z,6.87
2019-03-04T05:08:00.014Z,5.90
2019-03-04T05:10:35.041Z,5.93
2019-03-04T05:13:08.733Z,5.57
2019-03-04T05:15:42.679Z,6.60
2019-03-04T05:18:17.479Z,7.00
2019-03-04T05:20:51.421Z,8.30
2019-03-04T05:23:25.012Z,8.73
2019-03-04T05:25:59.237Z,8.27
2019-03-04T05:28:36.978Z,8.27
2019-03-04T05:31:11.454Z,8.60
2019-03-04T05:33:45.678Z,7.70
2019-03-04T05:36:20.853Z,9.10
2019-03-04T05:38:54.428Z,8.03
2019-03-04T05:41:28.501Z,7.73
2019-03-04T05:44:02.193Z,6.53
2019-03-04T05:46:36.980Z,6.93
2019-03-04T05:49:10.742Z,7.60
2019-03-04T05:51:45.295Z,7.93
2019-03-04T05:54:19.983Z,8.63
2019-03-04T05:56:53.835Z,9.63
2019-03-04T05:59:27.630Z,10.37
2019-03-04T06:02:06.615Z,10.23
2019-03-04T06:04:41.305Z,10.67
2019-03-04T06:07:26.023Z,15.53
2019-03-04T06:10:00.472Z,10.20
2019-03-04T06:12:34.777Z,10.40
2019-03-04T06:15:10.690Z,17.43
2019-03-04T06:17:44.858Z,14.03
2019-03-04T06:20:20.378Z,15.00
2019-03-04T06:22:54.428Z,12.03
2019-03-04T06:25:29.345Z,16.43
2019-03-04T06:28:05.715Z,13.70
2019-03-04T06:30:39.355Z,16.43
2019-03-04T06:33:13.641Z,15.03
2019-03-04T06:35:48.070Z,15.97
2019-03-04T06:38:22.261Z,15.17
2019-03-04T06:40:56.331Z,12.67
2019-03-04T06:43:31.658Z,16.63
2019-03-04T06:46:08.030Z,13.60
2019-03-04T06:48:43.839Z,14.60
2019-03-04T06:51:31.616Z,14.90
2019-03-04T06:54:09.773Z,13.60
2019-03-04T06:56:54.655Z,11.30
2019-03-04T06:59:38.405Z,10.87
2019-03-04T07:02:14.793Z,12.57
2019-03-04T07:05:19.151Z,12.03
2019-03-04T07:07:53.146Z,10.80
2019-03-04T07:10:27.957Z,12.50
2019-03-04T07:13:02.175Z,10.63
2019-03-04T07:15:36.601Z,11.50
2019-03-04T07:18:11.358Z,10.93
2019-03-04T07:20:46.595Z,14.13
2019-03-04T07:23:21.204Z,13.23
2019-03-04T07:25:56.628Z,11.83
2019-03-04T07:28:30.654Z,12.77
2019-03-04T07:31:07.487Z,13.57
2019-03-04T07:33:41.683Z,13.93
2019-03-04T07:36:17.072Z,10.87
2019-03-04T07:38:58.768Z,11.30
2019-03-04T07:41:38.269Z,12.97
2019-03-04T07:44:12.710Z,10.37
2019-03-04T07:46:47.290Z,12.40
2019-03-04T07:49:21.853Z,11.37
2019-03-04T07:51:56.806Z,12.87
2019-03-04T07:54:32.467Z,15.30
2019-03-04T07:57:07.407Z,13.60
2019-03-04T07:59:41.668Z,10.53
2019-03-04T08:02:16.366Z,15.20
2019-03-04T08:04:51.798Z,15.20
2019-03-04T08:07:54.859Z,13.07
2019-03-04T08:10:49.211Z,10.00
2019-03-04T08:13:30.739Z,8.87
2019-03-04T08:16:05.887Z,10.73
2019-03-04T08:18:41.278Z,8.37
2019-03-04T08:21:16.192Z,10.73
2019-03-04T08:23:50.534Z,8.53
2019-03-04T08:26:26.606Z,6.73
2019-03-04T08:29:01.680Z,8.30
2019-03-04T08:31:38.287Z,9.13
2019-03-04T08:34:12.898Z,9.73
2019-03-04T08:36:48.383Z,8.37
2019-03-04T08:39:26.159Z,5.53
2019-03-04T08:42:02.583Z,5.57
2019-03-04T08:44:37.633Z,7.83
2019-03-04T08:47:12.567Z,7.67
2019-03-04T08:49:49.045Z,6.93
2019-03-04T08:52:24.920Z,7.50
2019-03-04T08:54:59.021Z,7.37
2019-03-04T08:57:34.547Z,6.77
2019-03-04T09:00:11.193Z,9.10
2019-03-04T09:02:46.562Z,7.87
2019-03-04T09:05:24.892Z,9.03
2019-03-04T09:07:58.886Z,13.80
2019-03-04T09:10:34.472Z,8.50
2019-03-04T09:13:09.208Z,8.93
2019-03-04T09:15:44.686Z,6.70
2019-03-04T09:18:19.172Z,5.70
2019-03-04T09:20:55.299Z,8.97
2019-03-04T09:23:29.889Z,6.13
2019-03-04T09:26:08.558Z,5.10
2019-03-04T09:28:43.137Z,4.97
2019-03-04T09:31:17.643Z,6.40
2019-03-04T09:33:52.175Z,7.27
2019-03-04T09:36:26.695Z,6.30
2019-03-04T09:39:03.185Z,7.97
2019-03-04T09:41:38.712Z,6.50
2019-03-04T09:44:13.209Z,7.10
2019-03-04T09:46:47.040Z,5.77
2019-03-04T09:49:20.973Z,4.63
2019-03-04T09:51:56.315Z,5.47
2019-03-04T09:54:30.547Z,4.80
2019-03-04T09:57:04.791Z,4.90
2019-03-04T09:59:42.400Z,6.17
2019-03-04T10:02:20.307Z,3.93
2019-03-04T10:05:19.776Z,4.67
2019-03-04T10:08:32.353Z,5.10
2019-03-04T10:11:26.021Z,3.70
2019-03-04T10:14:21.519Z,5.17
2019-03-04T10:17:43.245Z,4.17
2019-03-04T10:20:53.433Z,5.27
2019-03-04T10:24:07.085Z,4.50
2019-03-04T10:27:18.705Z,4.70
2019-03-04T10:30:20.659Z,6.67
2019-03-04T10:33:09.944Z,4.50
2019-03-04T10:35:59.420Z,5.80
2019-03-04T10:39:22.416Z,9.03
2019-03-04T10:42:49.062Z,3.63
2019-03-04T10:45:52.334Z,4.47
2019-03-04T10:48:27.487Z,5.40
2019-03-04T10:51:02.646Z,3.10
2019-03-04T10:53:37.513Z,3.00
2019-03-04T10:56:14.599Z,2.90
2019-03-04T10:58:49.755Z,3.27
2019-03-04T11:01:30.377Z,3.60
2019-03-04T11:04:00.912Z,4.40
2019-03-04T11:06:35.882Z,6.57
2019-03-04T11:09:11.074Z,6.90
2019-03-04T11:11:45.790Z,4.13
2019-03-04T11:14:21.851Z,3.80
2019-03-04T11:16:56.703Z,3.80
2019-03-04T11:19:31.850Z,4.43
2019-03-04T11:22:06.612Z,4.83
2019-03-04T11:24:42.495Z,4.50
2019-03-04T11:27:17.108Z,3.83
2019-03-04T11:29:51.270Z,3.73
2019-03-04T11:32:25.844Z,4.10
2019-03-04T11:35:00.313Z,3.87
2019-03-04T11:37:35.383Z,3.33
2019-03-04T11:40:40.064Z,4.30
2019-03-04T11:43:16.943Z,4.10
2019-03-04T11:45:52.059Z,4.10
2019-03-04T11:48:27.218Z,3.70
2019-03-04T11:51:01.286Z,3.97
2019-03-04T11:53:37.965Z,4.70
2019-03-04T11:56:13.323Z,4.33
2019-03-04T11:58:47.596Z,5.10
2019-03-04T12:01:41.866Z,8.13
2019-03-04T12:04:31.408Z,4.87
2019-03-04T12:07:06.745Z,4.57
2019-03-04T12:09:41.207Z,4.77
2019-03-04T12:12:16.776Z,4.97
2019-03-04T12:14:50.796Z,4.77
2019-03-04T12:17:25.125Z,4.83
2019-03-04T12:19:59.619Z,4.57
2019-03-04T12:22:34.166Z,4.47
2019-03-04T12:25:11.144Z,4.63
2019-03-04T12:27:46.870Z,4.57
2019-03-04T12:30:23.220Z,4.97
2019-03-04T12:32:58.400Z,3.80
2019-03-04T12:35:33.412Z,6.50
2019-03-04T12:38:07.947Z,4.90
2019-03-04T12:40:49.874Z,4.30
2019-03-04T12:43:26.201Z,4.80
2019-03-04T12:46:00.795Z,4.10
2019-03-04T12:48:35.865Z,5.13
2019-03-04T12:51:11.301Z,5.03
2019-03-04T12:53:50.128Z,4.53
2019-03-04T12:56:26.561Z,4.30
2019-03-04T12:59:01.065Z,3.77
2019-03-04T13:01:35.767Z,3.90
2019-03-04T13:04:10.904Z,4.43
2019-03-04T13:06:45.139Z,4.77
2019-03-04T13:09:19.960Z,4.00
2019-03-04T13:11:55.100Z,4.27
2019-03-04T13:14:33.382Z,3.70
2019-03-04T13:17:08.311Z,6.57
2019-03-04T13:19:42.308Z,3.53
2019-03-04T13:22:20.576Z,4.13
2019-03-04T13:24:54.918Z,4.87
2019-03-04T13:27:29.564Z,4.27
2019-03-04T13:30:03.579Z,3.70
2019-03-04T13:32:39.426Z,3.90
2019-03-04T13:35:23.942Z,3.50
2019-03-04T13:37:54.496Z,4.50
2019-03-04T13:40:28.636Z,3.87
2019-03-04T13:43:03.263Z,3.53
2019-03-04T13:45:37.781Z,4.20
2019-03-04T13:48:13.123Z,3.97
2019-03-04T13:50:48.229Z,3.60
2019-03-04T13:53:23.978Z,3.43
2019-03-04T13:55:58.667Z,4.10
2019-03-04T13:58:37.629Z,4.30
2019-03-04T14:01:13.441Z,5.87
2019-03-04T14:03:47.884Z,4.23
2019-03-04T14:06:23.198Z,3.53
2019-03-04T14:08:58.447Z,4.07
2019-03-04T14:11:32.671Z,3.60
2019-03-04T14:14:13.318Z,4.97
2019-03-04T14:16:47.943Z,3.20
2019-03-04T14:19:22.001Z,4.80
2019-03-04T14:21:57.574Z,3.60
2019-03-04T14:24:35.676Z,3.20
2019-03-04T14:27:10.562Z,3.80
2019-03-04T14:29:45.276Z,3.10
2019-03-04T14:32:24.025Z,4.87
2019-03-04T14:35:01.026Z,3.70
2019-03-04T14:37:38.703Z,3.57
2019-03-04T14:40:14.675Z,3.17
2019-03-04T14:42:49.441Z,4.43
2019-03-04T14:45:27.771Z,3.90
2019-03-04T14:48:01.757Z,5.10
2019-03-04T14:50:39.416Z,3.43
2019-03-04T14:53:14.011Z,3.67
2019-03-04T14:55:48.910Z,3.43
2019-03-04T14:58:25.389Z,2.60
2019-03-04T15:01:04.852Z,2.77
2019-03-04T15:03:40.711Z,4.00
2019-03-04T15:06:16.353Z,4.10
2019-03-04T15:09:13.265Z,4.10
2019-03-04T15:11:47.678Z,4.20
2019-03-04T15:14:22.765Z,3.40
2019-03-04T15:17:03.257Z,4.10
2019-03-04T15:19:36.767Z,4.10
2019-03-04T15:22:10.926Z,5.30
2019-03-04T15:24:45.434Z,3.53
2019-03-04T15:27:20.155Z,3.20
2019-03-04T15:29:54.877Z,3.73
2019-03-04T15:32:30.249Z,5.57
2019-03-04T15:35:04.589Z,5.03
2019-03-04T15:37:40.082Z,7.27
2019-03-04T15:40:14.733Z,4.60
2019-03-04T15:42:50.962Z,4.63
2019-03-04T15:45:24.307Z,5.23
2019-03-04T15:48:00.403Z,3.53
2019-03-04T15:50:34.822Z,4.97
2019-03-04T15:53:09.117Z,7.90
2019-03-04T15:55:43.574Z,4.10
2019-03-04T15:58:18.655Z,4.90
2019-03-04T16:00:53.398Z,4.43
2019-03-04T16:03:29.423Z,3.80
2019-03-04T16:06:04.296Z,4.17
2019-03-04T16:08:39.220Z,3.80
2019-03-04T16:11:13.837Z,5.53
2019-03-04T16:13:52.987Z,4.43
2019-03-04T16:16:25.628Z,8.30
2019-03-04T16:19:00.090Z,6.20
2019-03-04T16:21:34.139Z,5.67
2019-03-04T16:24:11.816Z,7.20
2019-03-04T16:26:47.211Z,5.90
2019-03-04T16:29:21.869Z,7.10
2019-03-04T16:31:57.097Z,8.57
2019-03-04T16:34:32.550Z,8.30
2019-03-04T16:37:10.808Z,6.43
2019-03-04T16:39:45.248Z,6.60
2019-03-04T16:42:30.231Z,9.40
2019-03-04T16:45:07.042Z,7.60
2019-03-04T16:47:45.797Z,9.87
2019-03-04T16:50:19.983Z,8.10
2019-03-04T16:52:55.528Z,9.87
2019-03-04T16:55:30.823Z,7.97
2019-03-04T16:58:05.762Z,8.50
2019-03-04T17:00:39.327Z,8.60
2019-03-04T17:03:16.803Z,9.50
2019-03-04T17:05:52.041Z,10.90
2019-03-04T17:08:27.421Z,12.93
2019-03-04T17:11:01.988Z,12.53
2019-03-04T17:13:36.425Z,13.07
2019-03-04T17:16:11.702Z,13.30
2019-03-04T17:18:45.636Z,17.93
2019-03-04T17:21:20.631Z,16.97
2019-03-04T17:23:54.974Z,16.23
2019-03-04T17:26:29.143Z,14.83
2019-03-04T17:29:03.827Z,16.23
2019-03-04T17:31:43.294Z,20.20
2019-03-04T17:34:22.190Z,14.80
2019-03-04T17:36:57.177Z,16.47
2019-03-04T17:39:31.305Z,17.93
2019-03-04T17:42:06.627Z,16.67
2019-03-04T17:44:43.518Z,17.93
2019-03-04T17:47:19.352Z,19.20
2019-03-04T17:49:56.122Z,19.87
2019-03-04T17:52:31.093Z,24.67
2019-03-04T17:55:05.502Z,21.97
2019-03-04T17:57:41.397Z,23.17
2019-03-04T18:00:17.493Z,23.60
2019-03-04T18:02:51.156Z,22.13
2019-03-04T18:05:26.725Z,18.63
2019-03-04T18:08:01.248Z,18.10
2019-03-04T18:10:37.600Z,19.53
2019-03-04T18:13:13.796Z,20.83
2019-03-04T18:15:48.513Z,16.90
2019-03-04T18:18:23.959Z,19.93
2019-03-04T18:20:58.559Z,18.27
2019-03-04T18:23:33.445Z,20.63
2019-03-04T18:26:22.245Z,20.87
2019-03-04T18:29:24.562Z,21.20
2019-03-04T18:33:02.703Z,21.43
2019-03-04T18:36:32.759Z,25.17
2019-03-04T18:39:52.190Z,32.07
2019-03-04T18:42:52.392Z,34.33
2019-03-04T18:46:00.014Z,36.10
2019-03-04T18:48:59.903Z,35.37
2019-03-04T18:51:35.263Z,38.67
2019-03-04T18:54:17.598Z,38.43
2019-03-04T18:56:52.354Z,39.67
2019-03-04T18:59:27.197Z,36.70
2019-03-04T19:02:02.698Z,34.10
2019-03-04T19:04:38.000Z,35.40
2019-03-04T19:07:14.803Z,35.07
2019-03-04T19:09:49.956Z,34.47
2019-03-04T19:12:24.624Z,32.30
2019-03-04T19:14:59.700Z,31.77
2019-03-04T19:17:35.867Z,32.40
2019-03-04T19:20:13.639Z,35.10
2019-03-04T19:22:50.016Z,34.67
2019-03-04T19:25:30.350Z,33.67
2019-03-04T19:28:14.033Z,33.20
2019-03-04T19:30:49.672Z,30.03
2019-03-04T19:33:24.586Z,26.30
2019-03-04T19:36:00.776Z,21.80
2019-03-04T19:38:35.731Z,22.40
2019-03-04T19:41:10.699Z,19.43
2019-03-04T19:43:48.499Z,17.67
2019-03-04T19:46:23.478Z,17.83
2019-03-04T19:48:58.365Z,17.90
2019-03-04T19:51:33.117Z,21.03
2019-03-04T19:54:07.953Z,21.40
2019-03-04T19:56:42.706Z,22.70
2019-03-04T19:59:17.527Z,20.83
2019-03-04T20:01:52.662Z,18.67
2019-03-04T20:04:26.939Z,17.30
2019-03-04T20:07:02.615Z,17.90
2019-03-04T20:09:37.118Z,16.60
2019-03-04T20:12:13.212Z,18.13
2019-03-04T20:14:47.363Z,18.83
2019-03-04T20:17:23.323Z,17.83
2019-03-04T20:20:06.289Z,16.63
2019-03-04T20:22:43.414Z,17.07
2019-03-04T20:25:17.707Z,18.03
2019-03-04T20:27:52.302Z,17.77
2019-03-04T20:30:26.517Z,18.90
2019-03-04T20:33:00.653Z,19.53
2019-03-04T20:35:34.727Z,20.53
2019-03-04T20:38:12.276Z,20.53
2019-03-04T20:40:46.286Z,17.70
2019-03-04T20:43:24.447Z,19.80
2019-03-04T20:45:58.537Z,19.70
2019-03-04T20:48:32.986Z,19.67
2019-03-04T20:51:12.849Z,18.63
2019-03-04T20:53:47.639Z,15.13
2019-03-04T20:56:21.863Z,16.60
2019-03-04T20:58:57.920Z,15.10
2019-03-04T21:01:31.493Z,16.57
2019-03-04T21:04:06.089Z,16.10
2019-03-04T21:06:39.891Z,17.10
2019-03-04T21:09:16.175Z,16.00
2019-03-04T21:11:50.435Z,17.50
2019-03-04T21:14:25.282Z,13.93
2019-03-04T21:17:00.470Z,12.93
2019-03-04T21:19:34.535Z,14.17
2019-03-04T21:22:09.061Z,13.57
2019-03-04T21:24:43.862Z,14.00
2019-03-04T21:27:23.543Z,17.23
2019-03-04T21:30:36.847Z,17.37
2019-03-04T21:33:32.077Z,17.03
2019-03-04T21:36:34.187Z,16.13
2019-03-04T21:39:11.621Z,15.90
2019-03-04T21:42:19.293Z,16.00
2019-03-04T21:45:40.756Z,15.90
2019-03-04T21:48:25.002Z,14.20
2019-03-04T21:51:05.277Z,15.03
2019-03-04T21:53:43.702Z,12.13
2019-03-04T21:56:42.310Z,13.37
2019-03-04T21:59:17.291Z,13.53
2019-03-04T22:01:55.994Z,14.17
2019-03-04T22:04:30.368Z,13.33
2019-03-04T22:07:06.035Z,13.23
2019-03-04T22:09:40.069Z,12.90
2019-03-04T22:12:15.739Z,12.80
2019-03-04T22:14:50.388Z,11.17
2019-03-04T22:17:24.204Z,13.07
2019-03-04T22:19:58.637Z,11.60
2019-03-04T22:22:33.188Z,11.67
2019-03-04T22:25:08.141Z,16.27
2019-03-04T22:27:42.174Z,10.27
2019-03-04T22:30:18.156Z,11.53
2019-03-04T22:32:58.551Z,10.83
2019-03-04T22:35:32.811Z,9.70
2019-03-04T22:38:06.711Z,8.90
2019-03-04T22:40:43.375Z,8.43
2019-03-04T22:43:17.084Z,10.20
2019-03-04T22:45:51.746Z,12.83
2019-03-04T22:48:26.629Z,11.53
2019-03-04T22:51:00.743Z,9.13
2019-03-04T22:53:34.569Z,9.37
2019-03-04T22:56:10.219Z,8.80
2019-03-04T22:58:43.602Z,10.33
2019-03-04T23:02:02.770Z,9.53
2019-03-04T23:04:54.279Z,8.03
2019-03-04T23:07:34.166Z,8.77
2019-03-04T23:10:49.545Z,12.60
2019-03-04T23:13:56.312Z,11.00
2019-03-04T23:16:32.130Z,9.07
2019-03-04T23:19:07.439Z,9.00
2019-03-04T23:21:41.161Z,10.77
2019-03-04T23:24:15.307Z,9.17
2019-03-04T23:26:48.967Z,8.23
2019-03-04T23:29:24.548Z,10.27
2019-03-04T23:31:58.501Z,10.23
2019-03-04T23:34:34.237Z,8.17
2019-03-04T23:37:09.393Z,10.17
2019-03-04T23:39:44.087Z,9.07
2019-03-04T23:42:21.598Z,10.40
2019-03-04T23:44:56.236Z,8.87
2019-03-04T23:47:30.108Z,8.70
2019-03-04T23:50:22.512Z,9.03
2019-03-04T23:52:57.227Z,8.23
2019-03-04T23:55:31.247Z,7.97
2019-03-04T23:58:05.230Z,7.13
